Time;durP1;ratioP1;P1;durP2;ratioP2;P2;SDS_P1;SDS_P2;PMS_P1;PMS_P2;Temp;Humidity;BMP_temperature;BMP_pressure;BME280_temperature;BME280_humidity;BME280_pressure;Samples;Min_cycle;Max_cycle;Signal;HPM_P1;HPM_P2
2023/05/06 00:01:41;;;;;;;;;;;;;;;;;;5065712;28;1127;-70
2023/05/06 00:04:06;;;;;;;;;;;;;;;;;;5048887;28;881;-70
2023/05/06 00:06:32;;;;;;;;;;;;;;;;;;5033319;28;865;-70
2023/05/06 00:08:57;;;;;;;;;;;;;;;;;;5048792;28;1468;-70
2023/05/06 00:11:23;;;;;;;;;;;;;;;;;;5032989;28;1894;-70
2023/05/06 00:13:48;;;;;;;;;;;;;;;;;;5033702;28;999;-70
2023/05/06 00:16:14;;;;;;;;;;;;;;;;;;5049725;28;1182;-70
2023/05/06 00:18:40;;;;;;;;;;;;;;;;;;5033448;28;825;-70
2023/05/06 00:21:05;;;;;;;;;;;;;;;;;;5049182;28;1213;-70
2023/05/06 00:23:30;;;;;;;;;;;;;;;;;;5034056;28;825;-70
2023/05/06 00:25:56;;;;;;;;;;;;;;;;;;5033985;28;821;-70
2023/05/06 00:28:21;;;;;;;;;;;;;;;;;;5048905;28;849;-69
2023/05/06 00:30:46;;;;;;;;;;;;;;;;;;5048597;28;1922;-70
2023/05/06 00:33:12;;;;;;;;;;;;;;;;;;5034331;28;1093;-70
2023/05/06 00:35:37;;;;;;;;;;;;;;;;;;5033021;28;912;-70
2023/05/06 00:38:12;;;;;;;;;;;;;;;;;;5032769;28;822;-70
2023/05/06 00:40:38;;;;;;;;;;;;;;;;;;5032726;28;892;-70
2023/05/06 00:43:03;;;;;;;;;;;;;;;;;;5032391;28;987;-70
2023/05/06 00:45:28;;;;;;;;;;;;;;;;;;5033061;28;893;-70
2023/05/06 00:47:54;;;;;;;;;;;;;;;;;;5064668;28;1186;-70
2023/05/06 00:50:20;;;;;;;;;;;;;;;;;;5033092;28;1892;-71
2023/05/06 00:52:46;;;;;;;;;;;;;;;;;;5064418;28;1197;-70
2023/05/06 00:55:12;;;;;;;;;;;;;;;;;;5033207;28;833;-70
2023/05/06 00:57:39;;;;;;;;;;;;;;;;;;5032060;28;829;-70
2023/05/06 01:00:06;;;;;;;;;;;;;;;;;;5033099;28;911;-70
2023/05/06 01:02:31;;;;;;;;;;;;;;;;;;5032968;28;922;-70
2023/05/06 01:04:57;;;;;;;;;;;;;;;;;;5032753;28;845;-70
2023/05/06 01:07:27;;;;;;;;;;;;;;;;;;5064863;28;1166;-70
2023/05/06 01:10:12;;;;;;;;;;;;;;;;;;5032624;28;868;-70
2023/05/06 01:12:46;;;;;;;;;;;;;;;;;;5032231;28;1078;-70
2023/05/06 01:15:25;;;;;;;;;;;;;;;;;;5033631;28;663;-70
2023/05/06 01:17:52;;;;;;;;;;;;;;;;;;5032555;28;849;-70
2023/05/06 01:20:20;;;;;;;;;;;;;;;;;;5032645;28;948;-70
2023/05/06 01:22:45;;;;;;;;;;;;;;;;;;5032293;28;916;-70
2023/05/06 01:25:20;;;;;;;;;;;;;;;;;;5064707;28;1353;-70
2023/05/06 01:27:46;;;;;;;;;;;;;;;;;;5032089;28;821;-70
2023/05/06 01:30:11;;;;;;;;;;;;;;;;;;5032712;28;1965;-70
2023/05/06 01:32:57;;;;;;;;;;;;;;;;;;5047336;28;1264;-70
2023/05/06 01:35:26;;;;;;;;;;;;;;;;;;5032316;28;1101;-70
2023/05/06 01:37:55;;;;;;;;;;;;;;;;;;5032742;28;849;-70
2023/05/06 01:40:23;;;;;;;;;;;;;;;;;;5032937;28;838;-70
2023/05/06 01:42:49;;;;;;;;;;;;;;;;;;5032197;28;833;-71
2023/05/06 01:45:16;;;;;;;;;;;;;;;;;;5033237;28;900;-70
2023/05/06 01:47:43;;;;;;;;;;;;;;;;;;5032153;28;936;-70
2023/05/06 01:50:09;;;;;;;;;;;;;;;;;;5064500;28;1894;-70
2023/05/06 01:52:34;;;;;;;;;;;;;;;;;;5032036;28;845;-70
2023/05/06 01:54:59;;;;;;;;;;;;;;;;;;5032283;28;897;-70
2023/05/06 01:57:25;;;;;;;;;;;;;;;;;;5051685;28;1340;-70
2023/05/06 01:59:50;;;;;;;;;;;;;;;;;;5035891;28;868;-70
2023/05/06 02:02:15;;;;;;;;;;;;;;;;;;5051688;28;1298;-70
2023/05/06 02:04:41;;;;;;;;;;;;;;;;;;5035737;28;911;-70
2023/05/06 02:07:06;;;;;;;;;;;;;;;;;;5036049;28;868;-70
2023/05/06 02:09:31;;;;;;;;;;;;;;;;;;5035721;28;864;-70
2023/05/06 02:11:57;;;;;;;;;;;;;;;;;;5051028;28;1902;-70
2023/05/06 02:14:22;;;;;;;;;;;;;;;;;;5050938;28;1247;-70
2023/05/06 02:16:47;;;;;;;;;;;;;;;;;;5035815;28;904;-70
2023/05/06 02:19:12;;;;;;;;;;;;;;;;;;5051021;28;726;-70
2023/05/06 02:21:38;;;;;;;;;;;;;;;;;;5035235;28;1050;-70
2023/05/06 02:24:03;;;;;;;;;;;;;;;;;;5050857;28;1535;-70
2023/05/06 02:26:28;;;;;;;;;;;;;;;;;;5035918;28;825;-70
2023/05/06 02:28:54;;;;;;;;;;;;;;;;;;5067402;28;1235;-70
2023/05/06 02:31:19;;;;;;;;;;;;;;;;;;5035651;28;1907;-70
2023/05/06 02:33:45;;;;;;;;;;;;;;;;;;5035374;28;900;-70
2023/05/06 02:36:10;;;;;;;;;;;;;;;;;;5035668;28;1070;-70
2023/05/06 02:38:36;;;;;;;;;;;;;;;;;;5035378;28;829;-69
2023/05/06 02:41:01;;;;;;;;;;;;;;;;;;5034622;28;1082;-70
2023/05/06 02:43:26;;;;;;;;;;;;;;;;;;5035970;28;861;-70
2023/05/06 02:45:51;;;;;;;;;;;;;;;;;;5035222;28;999;-70
2023/05/06 02:48:17;;;;;;;;;;;;;;;;;;5035411;28;841;-70
2023/05/06 02:50:42;;;;;;;;;;;;;;;;;;5035532;28;1894;-70
2023/05/06 02:53:09;;;;;;;;;;;;;;;;;;5035519;28;927;-70
2023/05/06 02:55:35;;;;;;;;;;;;;;;;;;5035742;28;927;-70
2023/05/06 02:58:00;;;;;;;;;;;;;;;;;;5067322;28;1309;-70
2023/05/06 03:00:25;;;;;;;;;;;;;;;;;;5035831;28;793;-70
2023/05/06 03:02:51;;;;;;;;;;;;;;;;;;5035056;28;845;-70
2023/05/06 03:05:16;;;;;;;;;;;;;;;;;;5050961;28;841;-70
2023/05/06 03:07:41;;;;;;;;;;;;;;;;;;5050286;28;1335;-70
2023/05/06 03:10:07;;;;;;;;;;;;;;;;;;5035240;28;1063;-70
2023/05/06 03:12:32;;;;;;;;;;;;;;;;;;5066982;28;1886;-70
2023/05/06 03:14:57;;;;;;;;;;;;;;;;;;5035074;28;1066;-70
2023/05/06 03:17:23;;;;;;;;;;;;;;;;;;5066715;28;1238;-70
2023/05/06 03:19:49;;;;;;;;;;;;;;;;;;5034429;28;798;-70
2023/05/06 03:22:14;;;;;;;;;;;;;;;;;;5066860;28;1150;-70
2023/05/06 03:24:40;;;;;;;;;;;;;;;;;;5033544;28;959;-70
2023/05/06 03:27:05;;;;;;;;;;;;;;;;;;5049532;28;1403;-70
2023/05/06 03:29:30;;;;;;;;;;;;;;;;;;5049905;28;837;-70
2023/05/06 03:31:56;;;;;;;;;;;;;;;;;;5033312;28;1910;-70
2023/05/06 03:34:21;;;;;;;;;;;;;;;;;;5049789;28;1352;-70
2023/05/06 03:36:46;;;;;;;;;;;;;;;;;;5065936;28;1186;-70
2023/05/06 03:39:11;;;;;;;;;;;;;;;;;;5034558;28;856;-70
2023/05/06 03:41:37;;;;;;;;;;;;;;;;;;5049513;28;1040;-69
2023/05/06 03:44:02;;;;;;;;;;;;;;;;;;5049071;28;1098;-70
2023/05/06 03:46:27;;;;;;;;;;;;;;;;;;5033770;28;1066;-70
2023/05/06 03:48:53;;;;;;;;;;;;;;;;;;5048742;28;1194;-70
2023/05/06 03:51:18;;;;;;;;;;;;;;;;;;5049466;28;1969;-70
2023/05/06 03:53:43;;;;;;;;;;;;;;;;;;5034053;28;904;-69
2023/05/06 03:56:08;;;;;;;;;;;;;;;;;;5065894;28;1267;-70
2023/05/06 03:58:34;;;;;;;;;;;;;;;;;;5032363;28;892;-70
2023/05/06 04:00:59;;;;;;;;;;;;;;;;;;5048594;28;1326;-70
2023/05/06 04:03:25;;;;;;;;;;;;;;;;;;5033661;28;853;-70
2023/05/06 04:05:50;;;;;;;;;;;;;;;;;;5048553;28;1284;-70
2023/05/06 04:08:16;;;;;;;;;;;;;;;;;;5049103;28;1216;-70
2023/05/06 04:10:41;;;;;;;;;;;;;;;;;;5048562;28;1906;-71
2023/05/06 04:13:07;;;;;;;;;;;;;;;;;;5033363;28;1165;-70
2023/05/06 04:15:34;;;;;;;;;;;;;;;;;;5049179;28;845;-70
2023/05/06 04:17:59;;;;;;;;;;;;;;;;;;5064569;28;1298;-70
2023/05/06 04:20:24;;;;;;;;;;;;;;;;;;5033545;28;845;-70
2023/05/06 04:22:50;;;;;;;;;;;;;;;;;;5033677;28;888;-70
2023/05/06 04:25:17;;;;;;;;;;;;;;;;;;5050805;28;1464;-69
2023/05/06 04:27:42;;;;;;;;;;;;;;;;;;5051611;28;923;-70
2023/05/06 04:30:08;;;;;;;;;;;;;;;;;;5051018;28;956;-69
2023/05/06 04:32:33;;;;;;;;;;;;;;;;;;5067854;28;1945;-69
2023/05/06 04:34:58;;;;;;;;;;;;;;;;;;5051293;28;1054;-69
2023/05/06 04:37:24;;;;;;;;;;;;;;;;;;5036062;28;1040;-70
2023/05/06 04:39:49;;;;;;;;;;;;;;;;;;5051748;28;787;-69
2023/05/06 04:42:15;;;;;;;;;;;;;;;;;;5036380;28;865;-69
2023/05/06 04:44:41;;;;;;;;;;;;;;;;;;5051820;28;981;-69
2023/05/06 04:47:07;;;;;;;;;;;;;;;;;;5035538;28;966;-69
2023/05/06 04:49:32;;;;;;;;;;;;;;;;;;5036038;28;829;-70
2023/05/06 04:51:57;;;;;;;;;;;;;;;;;;5036005;28;1947;-69
2023/05/06 04:54:22;;;;;;;;;;;;;;;;;;5051401;28;955;-69
2023/05/06 04:56:48;;;;;;;;;;;;;;;;;;5067357;28;1365;-70
2023/05/06 04:59:13;;;;;;;;;;;;;;;;;;5051089;28;1085;-69
2023/05/06 05:01:39;;;;;;;;;;;;;;;;;;5051243;28;864;-69
2023/05/06 05:04:05;;;;;;;;;;;;;;;;;;5066216;28;975;-69
2023/05/06 05:06:31;;;;;;;;;;;;;;;;;;5033106;28;830;-69
2023/05/06 05:08:56;;;;;;;;;;;;;;;;;;5047911;28;905;-69
2023/05/06 05:11:21;;;;;;;;;;;;;;;;;;5032595;28;1899;-69
2023/05/06 05:13:47;;;;;;;;;;;;;;;;;;5064740;28;1241;-69
2023/05/06 05:16:12;;;;;;;;;;;;;;;;;;5048229;28;1158;-69
2023/05/06 05:18:37;;;;;;;;;;;;;;;;;;5032884;28;885;-69
2023/05/06 05:21:03;;;;;;;;;;;;;;;;;;5047416;28;908;-69
2023/05/06 05:23:28;;;;;;;;;;;;;;;;;;5032426;28;845;-69
2023/05/06 05:25:54;;;;;;;;;;;;;;;;;;5047818;28;1195;-69
2023/05/06 05:28:20;;;;;;;;;;;;;;;;;;5048527;28;861;-69
2023/05/06 05:30:45;;;;;;;;;;;;;;;;;;5048223;28;1890;-69
2023/05/06 05:33:10;;;;;;;;;;;;;;;;;;5033044;28;820;-69
2023/05/06 05:35:36;;;;;;;;;;;;;;;;;;5047704;28;1312;-69
2023/05/06 05:38:01;;;;;;;;;;;;;;;;;;5031961;28;869;-69
2023/05/06 05:40:26;;;;;;;;;;;;;;;;;;5032929;28;956;-69
2023/05/06 05:42:52;;;;;;;;;;;;;;;;;;5048073;28;821;-69
2023/05/06 05:45:17;;;;;;;;;;;;;;;;;;5064606;28;1207;-69
2023/05/06 05:47:42;;;;;;;;;;;;;;;;;;5047723;28;829;-69
2023/05/06 05:50:08;;;;;;;;;;;;;;;;;;5048040;28;841;-69
2023/05/06 05:52:33;;;;;;;;;;;;;;;;;;5032720;28;1894;-69
2023/05/06 05:54:58;;;;;;;;;;;;;;;;;;5032229;28;860;-69
2023/05/06 05:57:23;;;;;;;;;;;;;;;;;;5064838;28;1397;-69
2023/05/06 05:59:49;;;;;;;;;;;;;;;;;;5032385;28;829;-69
2023/05/06 06:02:14;;;;;;;;;;;;;;;;;;5047870;28;1138;-69
2023/05/06 06:04:39;;;;;;;;;;;;;;;;;;5032201;28;884;-68
2023/05/06 06:07:05;;;;;;;;;;;;;;;;;;5047504;28;1019;-69
2023/05/06 06:09:30;;;;;;;;;;;;;;;;;;5047317;28;1010;-69
2023/05/06 06:11:56;;;;;;;;;;;;;;;;;;5031438;28;1914;-69
2023/05/06 06:14:21;;;;;;;;;;;;;;;;;;5031986;28;853;-69
2023/05/06 06:16:47;;;;;;;;;;;;;;;;;;5063668;28;1194;-69
2023/05/06 06:19:12;;;;;;;;;;;;;;;;;;5031843;28;836;-69
2023/05/06 06:21:37;;;;;;;;;;;;;;;;;;5032062;28;1007;-69
2023/05/06 06:24:03;;;;;;;;;;;;;;;;;;5031599;28;861;-69
2023/05/06 06:26:28;;;;;;;;;;;;;;;;;;5030871;28;1279;-69
2023/05/06 06:28:53;;;;;;;;;;;;;;;;;;5038689;28;1153;-69
2023/05/06 06:31:19;;;;;;;;;;;;;;;;;;5041650;28;1910;-69
2023/05/06 06:33:44;;;;;;;;;;;;;;;;;;5046511;28;1172;-69
2023/05/06 06:36:09;;;;;;;;;;;;;;;;;;5031708;28;1001;-69
2023/05/06 06:38:35;;;;;;;;;;;;;;;;;;5046934;28;805;-69
2023/05/06 06:41:00;;;;;;;;;;;;;;;;;;5063413;28;1421;-69
2023/05/06 06:43:26;;;;;;;;;;;;;;;;;;5035688;28;817;-69
2023/05/06 06:45:51;;;;;;;;;;;;;;;;;;5049199;28;1208;-69
2023/05/06 06:48:16;;;;;;;;;;;;;;;;;;5085894;28;1120;-69
2023/05/06 06:50:42;;;;;;;;;;;;;;;;;;5070001;28;1976;-68
2023/05/06 06:53:07;;;;;;;;;;;;;;;;;;5087375;28;1123;-69
2023/05/06 06:55:33;;;;;;;;;;;;;;;;;;5087024;28;1189;-69
2023/05/06 06:57:58;;;;;;;;;;;;;;;;;;5070107;28;1007;-69
2023/05/06 07:00:23;;;;;;;;;;;;;;;;;;5070693;28;884;-69
2023/05/06 07:02:49;;;;;;;;;;;;;;;;;;5070283;28;1217;-69
2023/05/06 07:05:14;;;;;;;;;;;;;;;;;;5070776;28;1248;-69
2023/05/06 07:07:40;;;;;;;;;;;;;;;;;;5069659;28;1281;-68
2023/05/06 07:10:05;;;;;;;;;;;;;;;;;;5055153;28;840;-69
2023/05/06 07:12:30;;;;;;;;;;;;;;;;;;5054899;28;1897;-69
2023/05/06 07:14:56;;;;;;;;;;;;;;;;;;5070140;28;1059;-69
2023/05/06 07:17:21;;;;;;;;;;;;;;;;;;5070568;28;924;-69
2023/05/06 07:19:46;;;;;;;;;;;;;;;;;;5070406;28;1324;-69
2023/05/06 07:22:12;;;;;;;;;;;;;;;;;;5054813;28;940;-70
2023/05/06 07:24:37;;;;;;;;;;;;;;;;;;5070523;28;987;-70
2023/05/06 07:27:03;;;;;;;;;;;;;;;;;;5070224;28;941;-70
2023/05/06 07:29:29;;;;;;;;;;;;;;;;;;5087202;28;1458;-70
2023/05/06 07:31:54;;;;;;;;;;;;;;;;;;5070967;28;1965;-69
2023/05/06 07:34:19;;;;;;;;;;;;;;;;;;5055135;28;895;-70
2023/05/06 07:36:45;;;;;;;;;;;;;;;;;;5069920;28;957;-70
2023/05/06 07:39:11;;;;;;;;;;;;;;;;;;5070021;28;841;-70
2023/05/06 07:41:36;;;;;;;;;;;;;;;;;;5086491;28;1249;-70
2023/05/06 07:44:02;;;;;;;;;;;;;;;;;;5053904;28;828;-70
2023/05/06 07:46:27;;;;;;;;;;;;;;;;;;5053925;28;843;-70
2023/05/06 07:48:52;;;;;;;;;;;;;;;;;;5069714;28;817;-70
2023/05/06 07:51:18;;;;;;;;;;;;;;;;;;5053818;28;1898;-70
2023/05/06 07:53:43;;;;;;;;;;;;;;;;;;5068690;28;1293;-70
2023/05/06 07:56:09;;;;;;;;;;;;;;;;;;5069276;28;1450;-70
2023/05/06 07:58:34;;;;;;;;;;;;;;;;;;5054180;28;1007;-70
2023/05/06 08:00:59;;;;;;;;;;;;;;;;;;5054403;28;809;-70
2023/05/06 08:03:25;;;;;;;;;;;;;;;;;;5069417;28;1484;-70
2023/05/06 08:05:50;;;;;;;;;;;;;;;;;;5053795;28;1034;-70
2023/05/06 08:08:16;;;;;;;;;;;;;;;;;;5053957;28;896;-70
2023/05/06 08:10:42;;;;;;;;;;;;;;;;;;5054039;28;1902;-70
2023/05/06 08:13:07;;;;;;;;;;;;;;;;;;5054093;28;1483;-70
2023/05/06 08:15:33;;;;;;;;;;;;;;;;;;5069576;28;845;-70
2023/05/06 08:17:58;;;;;;;;;;;;;;;;;;5054427;28;916;-70
2023/05/06 08:20:23;;;;;;;;;;;;;;;;;;5069442;28;1458;-70
2023/05/06 08:22:49;;;;;;;;;;;;;;;;;;5086025;28;1357;-70
2023/05/06 08:25:15;;;;;;;;;;;;;;;;;;5053891;28;876;-70
2023/05/06 08:27:41;;;;;;;;;;;;;;;;;;5068799;28;1400;-70
2023/05/06 08:30:07;;;;;;;;;;;;;;;;;;5053525;28;844;-70
2023/05/06 08:32:32;;;;;;;;;;;;;;;;;;5069282;28;1918;-70
2023/05/06 08:34:59;;;;;;;;;;;;;;;;;;5053634;28;801;-70
2023/05/06 08:37:24;;;;;;;;;;;;;;;;;;5068340;28;1229;-70
2023/05/06 08:39:50;;;;;;;;;;;;;;;;;;5068158;28;951;-69
2023/05/06 08:42:15;;;;;;;;;;;;;;;;;;5053922;28;876;-70
2023/05/06 08:44:41;;;;;;;;;;;;;;;;;;5054576;28;888;-70
2023/05/06 08:47:07;;;;;;;;;;;;;;;;;;5054844;28;944;-69
2023/05/06 08:49:32;;;;;;;;;;;;;;;;;;5053966;28;999;-70
2023/05/06 08:51:58;;;;;;;;;;;;;;;;;;5068591;28;1918;-69
2023/05/06 08:54:23;;;;;;;;;;;;;;;;;;5068617;28;1238;-69
2023/05/06 08:56:52;;;;;;;;;;;;;;;;;;5053427;28;888;-69
2023/05/06 08:59:20;;;;;;;;;;;;;;;;;;5053098;28;836;-69
2023/05/06 09:01:45;;;;;;;;;;;;;;;;;;5053211;28;837;-69
2023/05/06 09:04:11;;;;;;;;;;;;;;;;;;5068806;28;923;-69
2023/05/06 09:06:36;;;;;;;;;;;;;;;;;;5085119;28;1308;-69
2023/05/06 09:09:02;;;;;;;;;;;;;;;;;;5052419;28;874;-69
2023/05/06 09:11:28;;;;;;;;;;;;;;;;;;5067050;28;1973;-69
2023/05/06 09:14:06;;;;;;;;;;;;;;;;;;5084222;28;1287;-69
2023/05/06 09:16:31;;;;;;;;;;;;;;;;;;5052443;28;979;-69
2023/05/06 09:18:57;;;;;;;;;;;;;;;;;;5067743;28;919;-69
2023/05/06 09:21:28;;;;;;;;;;;;;;;;;;5084870;28;1183;-69
2023/05/06 09:23:54;;;;;;;;;;;;;;;;;;5067569;28;1389;-69
2023/05/06 09:26:21;;;;;;;;;;;;;;;;;;5067970;28;1465;-70
2023/05/06 09:28:46;;;;;;;;;;;;;;;;;;5052029;28;841;-70
2023/05/06 09:31:13;;;;;;;;;;;;;;;;;;5068284;28;1918;-69
2023/05/06 09:33:38;;;;;;;;;;;;;;;;;;5052527;28;967;-69
2023/05/06 09:36:05;;;;;;;;;;;;;;;;;;5067738;28;1425;-69
2023/05/06 09:38:31;;;;;;;;;;;;;;;;;;5052423;28;907;-69
2023/05/06 09:40:56;;;;;;;;;;;;;;;;;;5052218;28;826;-69
2023/05/06 09:43:22;;;;;;;;;;;;;;;;;;5067403;28;1174;-69
2023/05/06 09:45:47;;;;;;;;;;;;;;;;;;5052184;28;821;-69
2023/05/06 09:48:13;;;;;;;;;;;;;;;;;;5052572;28;1059;-69
2023/05/06 09:50:39;;;;;;;;;;;;;;;;;;5052073;28;1914;-70
2023/05/06 09:53:05;;;;;;;;;;;;;;;;;;5052531;28;1015;-70
2023/05/06 09:55:31;;;;;;;;;;;;;;;;;;5052032;28;983;-70
2023/05/06 09:57:58;;;;;;;;;;;;;;;;;;5051893;28;1003;-70
2023/05/06 10:00:26;;;;;;;;;;;;;;;;;;5052109;28;857;-70
2023/05/06 10:02:53;;;;;;;;;;;;;;;;;;5084291;28;1300;-71
2023/05/06 10:05:19;;;;;;;;;;;;;;;;;;5051461;28;848;-70
2023/05/06 10:07:46;;;;;;;;;;;;;;;;;;5067675;28;908;-70
2023/05/06 10:10:12;;;;;;;;;;;;;;;;;;5084032;28;1543;-70
2023/05/06 10:12:40;;;;;;;;;;;;;;;;;;5066588;28;1886;-70
2023/05/06 10:15:06;;;;;;;;;;;;;;;;;;5052320;28;900;-70
2023/05/06 10:17:33;;;;;;;;;;;;;;;;;;5054489;28;896;-70
2023/05/06 10:19:59;;;;;;;;;;;;;;;;;;5055865;28;928;-70
2023/05/06 10:22:46;;;;;;;;;;;;;;;;;;5071496;28;1377;-70
2023/05/06 10:25:13;;;;;;;;;;;;;;;;;;5089142;28;1200;-70
2023/05/06 10:27:40;;;;;;;;;;;;;;;;;;5056251;28;833;-70
2023/05/06 10:30:08;;;;;;;;;;;;;;;;;;5088049;28;1335;-70
2023/05/06 10:32:33;;;;;;;;;;;;;;;;;;5055810;28;1975;-70
2023/05/06 10:35:04;;;;;;;;;;;;;;;;;;5070398;28;1476;-70
2023/05/06 10:37:31;;;;;;;;;;;;;;;;;;5087956;28;1231;-70
2023/05/06 10:39:56;;;;;;;;;;;;;;;;;;5055360;28;852;-70
2023/05/06 10:42:25;;;;;;;;;;;;;;;;;;5055068;28;995;-70
2023/05/06 10:44:57;;;;;;;;;;;;;;;;;;5087208;28;1075;-70
2023/05/06 10:47:22;;;;;;;;;;;;;;;;;;5054978;28;896;-70
2023/05/06 10:50:06;;;;;;;;;;;;;;;;;;5087321;28;1315;-70
2023/05/06 10:52:44;;;;;;;;;;;;;;;;;;5054327;28;1906;-70
2023/05/06 10:55:32;;;;;;;;;;;;;;;;;;5070190;28;955;-70
2023/05/06 10:58:02;;;;;;;;;;;;;;;;;;5056372;28;1159;-69
2023/05/06 11:00:31;;;;;;;;;;;;;;;;;;5055153;28;874;-70
2023/05/06 11:02:59;;;;;;;;;;;;;;;;;;5054525;28;955;-70
2023/05/06 11:05:25;;;;;;;;;;;;;;;;;;5054834;28;832;-70
2023/05/06 11:07:51;;;;;;;;;;;;;;;;;;5069853;28;1278;-70
2023/05/06 11:10:30;;;;;;;;;;;;;;;;;;5054502;28;790;-69
2023/05/06 11:12:56;;;;;;;;;;;;;;;;;;5086380;28;1244;-68
2023/05/06 11:15:27;;;;;;;;;;;;;;;;;;5055284;28;955;-68
2023/05/06 11:17:54;;;;;;;;;;;;;;;;;;5054395;28;881;-67
2023/05/06 11:20:19;;;;;;;;;;;;;;;;;;5087233;28;1214;-70
2023/05/06 11:22:45;;;;;;;;;;;;;;;;;;5054710;28;813;-70
2023/05/06 11:25:11;;;;;;;;;;;;;;;;;;5086997;28;1307;-70
2023/05/06 11:27:36;;;;;;;;;;;;;;;;;;5069584;28;1265;-69
2023/05/06 11:30:02;;;;;;;;;;;;;;;;;;5069988;28;1070;-69
2023/05/06 11:32:28;;;;;;;;;;;;;;;;;;5069867;28;1965;-70
2023/05/06 11:34:55;;;;;;;;;;;;;;;;;;5086740;28;1182;-70
2023/05/06 11:37:25;;;;;;;;;;;;;;;;;;5086655;28;946;-70
2023/05/06 11:39:50;;;;;;;;;;;;;;;;;;5069352;28;1245;-70
2023/05/06 11:42:22;;;;;;;;;;;;;;;;;;5054463;28;832;-71
2023/05/06 11:44:48;;;;;;;;;;;;;;;;;;5053957;28;1050;-70
2023/05/06 11:47:13;;;;;;;;;;;;;;;;;;5053496;28;1308;-70
2023/05/06 11:49:40;;;;;;;;;;;;;;;;;;5072550;28;1054;-69
2023/05/06 11:52:06;;;;;;;;;;;;;;;;;;5073392;28;2001;-70
2023/05/06 11:54:35;;;;;;;;;;;;;;;;;;5060828;28;1097;-70
2023/05/06 11:57:01;;;;;;;;;;;;;;;;;;5076221;28;1102;-70
2023/05/06 11:59:36;;;;;;;;;;;;;;;;;;5076684;28;1027;-69
2023/05/06 12:02:02;;;;;;;;;;;;;;;;;;5093070;28;1590;-70
2023/05/06 12:04:35;;;;;;;;;;;;;;;;;;5092599;28;1225;-71
2023/05/06 12:07:01;;;;;;;;;;;;;;;;;;5059405;28;1054;-70
2023/05/06 12:09:26;;;;;;;;;;;;;;;;;;5056534;28;1023;-69
2023/05/06 12:11:52;;;;;;;;;;;;;;;;;;5055585;28;1967;-70
2023/05/06 12:14:17;;;;;;;;;;;;;;;;;;5071824;28;833;-70
2023/05/06 12:16:43;;;;;;;;;;;;;;;;;;5088277;28;1299;-70
2023/05/06 12:19:08;;;;;;;;;;;;;;;;;;5088698;28;1395;-70
2023/05/06 12:21:37;;;;;;;;;;;;;;;;;;5054227;28;892;-70
2023/05/06 12:24:02;;;;;;;;;;;;;;;;;;5053396;28;900;-70
2023/05/06 12:26:29;;;;;;;;;;;;;;;;;;5053523;28;943;-70
2023/05/06 12:29:05;;;;;;;;;;;;;;;;;;5067847;28;864;-70
2023/05/06 12:31:31;;;;;;;;;;;;;;;;;;5053805;28;1971;-70
2023/05/06 12:33:56;;;;;;;;;;;;;;;;;;5068043;28;991;-71
2023/05/06 12:36:21;;;;;;;;;;;;;;;;;;5054034;28;931;-70
2023/05/06 12:38:54;;;;;;;;;;;;;;;;;;5085341;28;1215;-70
2023/05/06 12:41:20;;;;;;;;;;;;;;;;;;5053279;28;844;-70
2023/05/06 12:43:46;;;;;;;;;;;;;;;;;;5068657;28;1352;-71
2023/05/06 12:46:14;;;;;;;;;;;;;;;;;;5053196;28;896;-70
2023/05/06 12:48:40;;;;;;;;;;;;;;;;;;5084754;28;1205;-71
2023/05/06 12:51:18;;;;;;;;;;;;;;;;;;5052653;28;1902;-70
2023/05/06 12:53:43;;;;;;;;;;;;;;;;;;5053085;28;883;-70
2023/05/06 12:56:08;;;;;;;;;;;;;;;;;;5052634;28;856;-70
2023/05/06 12:58:36;;;;;;;;;;;;;;;;;;5068797;28;813;-70
2023/05/06 13:01:01;;;;;;;;;;;;;;;;;;5052590;28;872;-70
2023/05/06 13:03:27;;;;;;;;;;;;;;;;;;5053096;28;939;-70
2023/05/06 13:05:52;;;;;;;;;;;;;;;;;;5052641;28;865;-70
2023/05/06 13:08:18;;;;;;;;;;;;;;;;;;5053561;28;821;-70
2023/05/06 13:10:43;;;;;;;;;;;;;;;;;;5052327;28;1969;-71
2023/05/06 13:13:08;;;;;;;;;;;;;;;;;;5052896;28;1137;-70
2023/05/06 13:15:34;;;;;;;;;;;;;;;;;;5053301;28;849;-70
2023/05/06 13:17:59;;;;;;;;;;;;;;;;;;5068498;28;1087;-70
2023/05/06 13:20:26;;;;;;;;;;;;;;;;;;5053439;28;833;-70
2023/05/06 13:22:51;;;;;;;;;;;;;;;;;;5067974;28;1197;-70
2023/05/06 13:25:16;;;;;;;;;;;;;;;;;;5053167;28;952;-70
2023/05/06 13:27:41;;;;;;;;;;;;;;;;;;5067856;28;987;-70
2023/05/06 13:30:07;;;;;;;;;;;;;;;;;;5052241;28;975;-71
2023/05/06 13:32:32;;;;;;;;;;;;;;;;;;5067345;28;1970;-70
2023/05/06 13:34:58;;;;;;;;;;;;;;;;;;5051698;28;888;-70
2023/05/06 13:37:23;;;;;;;;;;;;;;;;;;5052480;28;891;-70
2023/05/06 13:39:48;;;;;;;;;;;;;;;;;;5051067;28;1230;-70
2023/05/06 13:42:13;;;;;;;;;;;;;;;;;;5051673;28;896;-70
2023/05/06 13:44:39;;;;;;;;;;;;;;;;;;5084173;28;1672;-69
2023/05/06 13:47:04;;;;;;;;;;;;;;;;;;5083622;28;1249;-70
2023/05/06 13:49:30;;;;;;;;;;;;;;;;;;5067505;28;1201;-70
2023/05/06 13:51:56;;;;;;;;;;;;;;;;;;5054416;28;1968;-69
2023/05/06 13:54:21;;;;;;;;;;;;;;;;;;5056065;28;904;-69
2023/05/06 13:56:46;;;;;;;;;;;;;;;;;;5071314;28;1359;-70
2023/05/06 13:59:12;;;;;;;;;;;;;;;;;;5055872;28;890;-69
2023/05/06 14:01:38;;;;;;;;;;;;;;;;;;5055537;28;881;-69
2023/05/06 14:04:03;;;;;;;;;;;;;;;;;;5070989;28;895;-69
2023/05/06 14:06:28;;;;;;;;;;;;;;;;;;5055843;28;844;-70
2023/05/06 14:08:54;;;;;;;;;;;;;;;;;;5088045;28;1396;-69
2023/05/06 14:11:19;;;;;;;;;;;;;;;;;;5055838;28;1952;-70
2023/05/06 14:13:45;;;;;;;;;;;;;;;;;;5071560;28;1156;-70
2023/05/06 14:16:10;;;;;;;;;;;;;;;;;;5070699;28;1366;-70
2023/05/06 14:18:35;;;;;;;;;;;;;;;;;;5087844;28;1233;-70
2023/05/06 14:21:01;;;;;;;;;;;;;;;;;;5055146;28;844;-70
2023/05/06 14:23:26;;;;;;;;;;;;;;;;;;5070659;28;1313;-70
2023/05/06 14:25:51;;;;;;;;;;;;;;;;;;5055525;28;808;-69
2023/05/06 14:28:17;;;;;;;;;;;;;;;;;;5055521;28;844;-69
2023/05/06 14:30:42;;;;;;;;;;;;;;;;;;5056272;28;1973;-69
2023/05/06 14:33:08;;;;;;;;;;;;;;;;;;5054928;28;1296;-69
2023/05/06 14:35:34;;;;;;;;;;;;;;;;;;5056390;28;923;-69
2023/05/06 14:37:59;;;;;;;;;;;;;;;;;;5055543;28;928;-69
2023/05/06 14:40:24;;;;;;;;;;;;;;;;;;5056308;28;829;-69
2023/05/06 14:42:50;;;;;;;;;;;;;;;;;;5071129;28;904;-69
2023/05/06 14:45:16;;;;;;;;;;;;;;;;;;5056055;28;852;-69
2023/05/06 14:47:41;;;;;;;;;;;;;;;;;;5056185;28;888;-69
2023/05/06 14:50:10;;;;;;;;;;;;;;;;;;5055021;28;944;-70
2023/05/06 14:52:39;;;;;;;;;;;;;;;;;;5055752;28;1973;-70
2023/05/06 14:55:09;;;;;;;;;;;;;;;;;;5070347;28;1237;-69
2023/05/06 14:57:34;;;;;;;;;;;;;;;;;;5070127;28;1235;-70
2023/05/06 15:00:01;;;;;;;;;;;;;;;;;;5052476;28;1180;-69
2023/05/06 15:02:26;;;;;;;;;;;;;;;;;;5079389;28;1143;-69
2023/05/06 15:04:52;;;;;;;;;;;;;;;;;;5050749;28;1164;-66
2023/05/06 15:07:20;;;;;;;;;;;;;;;;;;5034137;28;917;-64
2023/05/06 15:09:45;;;;;;;;;;;;;;;;;;5066535;28;1419;-64
2023/05/06 15:12:11;;;;;;;;;;;;;;;;;;5033393;28;1890;-64
2023/05/06 15:14:37;;;;;;;;;;;;;;;;;;5049542;28;1510;-64
2023/05/06 15:17:02;;;;;;;;;;;;;;;;;;5033780;28;825;-64
2023/05/06 15:19:27;;;;;;;;;;;;;;;;;;5034153;28;893;-64
2023/05/06 15:21:53;;;;;;;;;;;;;;;;;;5033856;28;821;-65
2023/05/06 15:24:18;;;;;;;;;;;;;;;;;;5049351;28;1133;-64
2023/05/06 15:26:44;;;;;;;;;;;;;;;;;;5033995;28;1251;-64
2023/05/06 15:29:09;;;;;;;;;;;;;;;;;;5033485;28;872;-64
2023/05/06 15:31:37;;;;;;;;;;;;;;;;;;5065945;28;1977;-64
2023/05/06 15:34:04;;;;;;;;;;;;;;;;;;5033001;28;1137;-64
2023/05/06 15:36:30;;;;;;;;;;;;;;;;;;5033766;28;1217;-65
2023/05/06 15:38:56;;;;;;;;;;;;;;;;;;5047630;28;853;-64
2023/05/06 15:41:25;;;;;;;;;;;;;;;;;;5033993;28;853;-64
2023/05/06 15:43:50;;;;;;;;;;;;;;;;;;5033853;28;896;-64
2023/05/06 15:46:16;;;;;;;;;;;;;;;;;;5048956;28;814;-63
2023/05/06 15:48:41;;;;;;;;;;;;;;;;;;5049204;28;1241;-63
2023/05/06 15:51:06;;;;;;;;;;;;;;;;;;5033452;28;1906;-63
2023/05/06 15:53:31;;;;;;;;;;;;;;;;;;5048872;28;1155;-63
2023/05/06 15:55:57;;;;;;;;;;;;;;;;;;5033532;28;1154;-63
2023/05/06 15:58:23;;;;;;;;;;;;;;;;;;5034062;28;828;-63
2023/05/06 16:00:48;;;;;;;;;;;;;;;;;;5034045;28;908;-63
2023/05/06 16:03:16;;;;;;;;;;;;;;;;;;5049649;28;1227;-63
2023/05/06 16:05:42;;;;;;;;;;;;;;;;;;5034560;28;911;-63
2023/05/06 16:08:07;;;;;;;;;;;;;;;;;;5034007;28;849;-63
2023/05/06 16:10:34;;;;;;;;;;;;;;;;;;5049281;28;1292;-63
2023/05/06 16:12:59;;;;;;;;;;;;;;;;;;5033774;28;1894;-64
2023/05/06 16:15:25;;;;;;;;;;;;;;;;;;5047596;28;1404;-64
2023/05/06 16:17:50;;;;;;;;;;;;;;;;;;5049036;28;882;-64
2023/05/06 16:20:16;;;;;;;;;;;;;;;;;;5031695;28;1053;-64
2023/05/06 16:22:47;;;;;;;;;;;;;;;;;;5033251;28;900;-64
2023/05/06 16:25:13;;;;;;;;;;;;;;;;;;5032967;28;920;-63
2023/05/06 16:27:38;;;;;;;;;;;;;;;;;;5032750;28;898;-63
2023/05/06 16:30:04;;;;;;;;;;;;;;;;;;5032783;28;932;-63
2023/05/06 16:32:29;;;;;;;;;;;;;;;;;;5048319;28;1914;-64
2023/05/06 16:34:54;;;;;;;;;;;;;;;;;;5064553;28;860;-63
2023/05/06 16:37:20;;;;;;;;;;;;;;;;;;5033131;28;1090;-64
2023/05/06 16:39:45;;;;;;;;;;;;;;;;;;5048328;28;861;-65
2023/05/06 16:42:10;;;;;;;;;;;;;;;;;;5032316;28;860;-65
2023/05/06 16:44:36;;;;;;;;;;;;;;;;;;5032453;28;880;-63
2023/05/06 16:47:01;;;;;;;;;;;;;;;;;;5032590;28;837;-65
2023/05/06 16:49:26;;;;;;;;;;;;;;;;;;5032374;28;877;-66
2023/05/06 16:51:52;;;;;;;;;;;;;;;;;;5032478;28;1956;-64
2023/05/06 16:54:17;;;;;;;;;;;;;;;;;;5031971;28;865;-62
2023/05/06 16:56:43;;;;;;;;;;;;;;;;;;5032565;28;794;-63
2023/05/06 16:59:08;;;;;;;;;;;;;;;;;;5047435;28;1170;-64
2023/05/06 17:01:33;;;;;;;;;;;;;;;;;;5032970;28;841;-64
2023/05/06 17:03:58;;;;;;;;;;;;;;;;;;5047331;28;1186;-64
2023/05/06 17:06:28;;;;;;;;;;;;;;;;;;5047716;28;837;-64